Time;durP1;ratioP1;P1;durP2;ratioP2;P2;SDS_P1;SDS_P2;PMS_P1;PMS_P2;Temp;Humidity;BMP_temperature;BMP_pressure;BME280_temperature;BME280_humidity;BME280_pressure;Samples;Min_cycle;Max_cycle;Signal;HPM_P1;HPM_P2
2022/09/07 00:00:41;;;;;;;;;;;18.50;99.90;;;;;;5070798;28;19935;-69
2022/09/07 00:03:06;;;;;;;;;;;18.50;99.90;;;;;;5055010;28;19924;-69
2022/09/07 00:05:32;;;;;;;;;;;18.60;99.90;;;;;;5054866;28;20011;-69
2022/09/07 00:07:58;;;;;;;;;;;18.50;99.90;;;;;;5058024;28;20385;-69
2022/09/07 00:10:24;;;;;;;;;;;18.40;99.90;;;;;;5074683;28;19920;-69
2022/09/07 00:12:50;;;;;;;;;;;18.30;99.90;;;;;;5039571;28;19932;-69
2022/09/07 00:15:16;;;;;;;;;;;18.10;99.90;;;;;;5056742;28;19925;-69
2022/09/07 00:17:42;;;;;;;;;;;18.10;99.90;;;;;;5057834;28;20002;-69
2022/09/07 00:20:08;;;;;;;;;;;17.90;99.90;;;;;;5074083;28;19921;-69
2022/09/07 00:22:34;;;;;;;;;;;17.90;99.90;;;;;;5055955;28;20608;-69
2022/09/07 00:24:59;;;;;;;;;;;17.80;99.90;;;;;;5037936;28;19924;-69
2022/09/07 00:27:25;;;;;;;;;;;17.80;99.90;;;;;;5023759;28;19925;-69
2022/09/07 00:29:50;;;;;;;;;;;17.90;99.90;;;;;;5052848;28;19975;-70
2022/09/07 00:32:16;;;;;;;;;;;17.90;99.90;;;;;;5041987;28;19944;-69
2022/09/07 00:34:41;;;;;;;;;;;18.00;99.90;;;;;;5049552;28;19921;-69
2022/09/07 00:37:07;;;;;;;;;;;18.10;99.90;;;;;;5045919;28;19968;-69
2022/09/07 00:39:33;;;;;;;;;;;18.10;99.90;;;;;;5045948;28;19932;-70
2022/09/07 00:41:59;;;;;;;;;;;18.20;99.90;;;;;;5049016;28;19928;-70
2022/09/07 00:44:43;;;;;;;;;;;18.30;99.90;;;;;;5050207;28;20336;-70
2022/09/07 00:47:11;;;;;;;;;;;18.40;99.90;;;;;;5049924;28;20315;-70
2022/09/07 00:49:37;;;;;;;;;;;18.40;99.90;;;;;;5027931;28;20263;-70
2022/09/07 00:52:04;;;;;;;;;;;18.50;99.90;;;;;;5042638;28;20016;-70
2022/09/07 00:54:32;;;;;;;;;;;18.50;99.90;;;;;;5052384;28;19925;-70
2022/09/07 00:56:58;;;;;;;;;;;18.50;99.90;;;;;;5047800;28;20333;-70
2022/09/07 00:59:27;;;;;;;;;;;18.50;99.90;;;;;;5052326;28;20016;-70
2022/09/07 01:01:53;;;;;;;;;;;18.50;99.90;;;;;;5047550;28;19940;-70
2022/09/07 01:04:18;;;;;;;;;;;18.50;99.90;;;;;;5046072;28;20329;-70
2022/09/07 01:06:44;;;;;;;;;;;18.50;99.90;;;;;;5046878;28;20349;-70
2022/09/07 01:09:11;;;;;;;;;;;18.60;99.90;;;;;;5046679;28;19924;-70
2022/09/07 01:11:37;;;;;;;;;;;18.70;99.90;;;;;;5034760;28;19932;-70
2022/09/07 01:14:05;;;;;;;;;;;18.70;99.90;;;;;;5045962;28;19920;-70
2022/09/07 01:16:49;;;;;;;;;;;18.60;99.90;;;;;;5037399;28;20004;-68
2022/09/07 01:19:36;;;;;;;;;;;18.50;99.90;;;;;;5042793;28;19956;-68
2022/09/07 01:22:01;;;;;;;;;;;18.40;99.90;;;;;;5047435;28;20293;-68
2022/09/07 01:24:26;;;;;;;;;;;18.40;99.90;;;;;;5048776;28;19921;-68
2022/09/07 01:27:11;;;;;;;;;;;18.40;99.90;;;;;;5042859;28;19964;-68
2022/09/07 01:29:48;;;;;;;;;;;18.30;99.90;;;;;;5036470;28;20362;-68
2022/09/07 01:32:49;;;;;;;;;;;18.20;99.90;;;;;;5044656;28;19927;-68
2022/09/07 01:35:24;;;;;;;;;;;18.20;99.90;;;;;;4977907;28;20056;-68
2022/09/07 01:38:03;;;;;;;;;;;18.00;99.90;;;;;;5037958;28;19929;-68
2022/09/07 01:40:32;;;;;;;;;;;18.00;99.90;;;;;;5049404;28;19921;-69
2022/09/07 01:43:11;;;;;;;;;;;18.00;99.90;;;;;;5045317;28;20394;-68
2022/09/07 01:45:38;;;;;;;;;;;18.00;99.90;;;;;;5038044;28;19921;-68
2022/09/07 01:48:06;;;;;;;;;;;18.00;99.90;;;;;;5034756;28;19965;-68
2022/09/07 01:50:35;;;;;;;;;;;18.00;99.90;;;;;;5037430;28;20433;-68
2022/09/07 01:53:14;;;;;;;;;;;18.10;99.90;;;;;;5032223;28;20401;-68
2022/09/07 01:55:46;;;;;;;;;;;18.10;99.90;;;;;;5032267;28;20400;-68
2022/09/07 01:58:14;;;;;;;;;;;18.00;99.90;;;;;;5032013;28;20363;-68
2022/09/07 02:00:43;;;;;;;;;;;18.00;99.90;;;;;;5032067;28;19921;-68
2022/09/07 02:03:14;;;;;;;;;;;18.00;99.90;;;;;;5034824;28;20344;-68
2022/09/07 02:05:52;;;;;;;;;;;18.00;99.90;;;;;;5021329;28;19983;-68
2022/09/07 02:08:20;;;;;;;;;;;17.90;99.90;;;;;;5031842;28;19991;-68
2022/09/07 02:10:52;;;;;;;;;;;17.90;99.90;;;;;;5031897;28;19928;-68
2022/09/07 02:13:47;;;;;;;;;;;17.80;99.90;;;;;;5031827;28;20027;-68
2022/09/07 02:16:14;;;;;;;;;;;17.80;99.90;;;;;;5027272;28;19928;-68
2022/09/07 02:18:43;;;;;;;;;;;17.70;99.90;;;;;;5044639;28;20425;-68
2022/09/07 02:21:09;;;;;;;;;;;17.80;99.90;;;;;;5048144;28;19925;-68
2022/09/07 02:23:42;;;;;;;;;;;17.70;99.90;;;;;;5036825;28;20302;-68
2022/09/07 02:26:16;;;;;;;;;;;17.70;99.90;;;;;;5056974;28;19930;-68
2022/09/07 02:28:42;;;;;;;;;;;17.70;99.90;;;;;;5051457;28;20560;-68
2022/09/07 02:31:07;;;;;;;;;;;17.70;99.90;;;;;;5054720;28;19920;-68
2022/09/07 02:33:33;;;;;;;;;;;17.70;99.90;;;;;;5049984;28;20439;-68
2022/09/07 02:35:59;;;;;;;;;;;17.70;99.90;;;;;;5050102;28;19928;-68
2022/09/07 02:38:25;;;;;;;;;;;17.70;99.90;;;;;;5050606;28;19982;-68
2022/09/07 02:40:51;;;;;;;;;;;17.50;99.90;;;;;;5050443;28;19971;-68
2022/09/07 02:43:17;;;;;;;;;;;17.60;99.90;;;;;;5047144;28;19921;-68
2022/09/07 02:45:52;;;;;;;;;;;17.60;99.90;;;;;;5049681;28;19925;-68
2022/09/07 02:48:41;;;;;;;;;;;17.50;99.90;;;;;;5050998;28;19921;-68
2022/09/07 02:51:06;;;;;;;;;;;17.50;99.90;;;;;;5042965;28;19924;-68
2022/09/07 02:53:35;;;;;;;;;;;17.50;99.90;;;;;;5051006;28;20389;-68
2022/09/07 02:56:05;;;;;;;;;;;17.50;99.90;;;;;;5050711;28;19931;-68
2022/09/07 02:58:53;;;;;;;;;;;17.60;99.90;;;;;;5052145;28;19928;-68
2022/09/07 03:01:34;;;;;;;;;;;17.60;99.90;;;;;;5048378;28;19925;-68
2022/09/07 03:04:03;;;;;;;;;;;17.60;99.90;;;;;;5035879;28;20293;-68
2022/09/07 03:06:30;;;;;;;;;;;17.70;99.90;;;;;;5049707;28;19925;-68
2022/09/07 03:08:57;;;;;;;;;;;17.60;99.90;;;;;;5050790;28;19971;-68
2022/09/07 03:11:23;;;;;;;;;;;17.50;99.90;;;;;;5053198;28;19924;-68
2022/09/07 03:13:49;;;;;;;;;;;17.50;99.90;;;;;;5050826;28;19974;-68
2022/09/07 03:16:14;;;;;;;;;;;17.50;99.90;;;;;;5049402;28;19971;-68
2022/09/07 03:18:41;;;;;;;;;;;17.50;99.90;;;;;;5046859;28;19978;-68
2022/09/07 03:21:06;;;;;;;;;;;17.40;99.90;;;;;;5047025;28;20037;-68
2022/09/07 03:23:32;;;;;;;;;;;17.40;99.90;;;;;;5051163;28;20024;-68
2022/09/07 03:25:57;;;;;;;;;;;17.40;99.90;;;;;;5051998;28;19975;-68
2022/09/07 03:28:23;;;;;;;;;;;17.30;99.90;;;;;;5037335;28;19924;-68
2022/09/07 03:30:48;;;;;;;;;;;17.20;99.90;;;;;;5032765;28;19929;-68
2022/09/07 03:33:14;;;;;;;;;;;17.30;99.90;;;;;;5050527;28;19924;-68
2022/09/07 03:35:44;;;;;;;;;;;17.30;99.90;;;;;;5048728;28;19932;-68
2022/09/07 03:38:10;;;;;;;;;;;17.20;99.90;;;;;;5051631;28;19983;-68
2022/09/07 03:40:35;;;;;;;;;;;17.20;99.90;;;;;;5044683;28;19928;-68
2022/09/07 03:43:01;;;;;;;;;;;17.20;99.90;;;;;;5051003;28;20500;-68
2022/09/07 03:45:26;;;;;;;;;;;17.20;99.90;;;;;;5048684;28;19924;-68
2022/09/07 03:47:52;;;;;;;;;;;17.20;99.90;;;;;;5051539;28;19921;-68
2022/09/07 03:50:17;;;;;;;;;;;17.20;99.90;;;;;;5043835;28;19928;-68
2022/09/07 03:52:43;;;;;;;;;;;17.20;99.90;;;;;;5053669;28;19921;-68
2022/09/07 03:55:08;;;;;;;;;;;17.20;99.90;;;;;;5057336;28;19920;-68
2022/09/07 03:57:34;;;;;;;;;;;17.20;99.90;;;;;;5050956;28;19951;-68
2022/09/07 03:59:59;;;;;;;;;;;17.10;99.90;;;;;;5031741;28;19929;-68
2022/09/07 04:02:25;;;;;;;;;;;17.20;99.90;;;;;;5049467;28;19928;-68
2022/09/07 04:04:50;;;;;;;;;;;17.20;99.90;;;;;;5048384;28;19921;-68
2022/09/07 04:07:16;;;;;;;;;;;17.30;99.90;;;;;;5052999;28;19921;-68
2022/09/07 04:09:41;;;;;;;;;;;17.30;99.90;;;;;;5052341;28;20365;-68
2022/09/07 04:12:07;;;;;;;;;;;17.20;99.90;;;;;;5047256;28;19938;-68
2022/09/07 04:14:32;;;;;;;;;;;17.20;99.90;;;;;;5048795;28;19921;-68
2022/09/07 04:16:58;;;;;;;;;;;17.10;99.90;;;;;;5049750;28;19982;-68
2022/09/07 04:19:23;;;;;;;;;;;17.10;99.90;;;;;;5049927;28;20310;-68
2022/09/07 04:21:49;;;;;;;;;;;17.10;99.90;;;;;;5051251;28;19928;-68
2022/09/07 04:24:15;;;;;;;;;;;17.00;99.90;;;;;;5048307;28;19964;-68
2022/09/07 04:26:42;;;;;;;;;;;17.00;99.90;;;;;;5029962;28;20270;-68
2022/09/07 04:29:08;;;;;;;;;;;16.90;99.90;;;;;;5032626;28;19928;-68
2022/09/07 04:31:34;;;;;;;;;;;16.90;99.90;;;;;;5036934;28;19975;-68
2022/09/07 04:34:00;;;;;;;;;;;16.90;99.90;;;;;;5038522;28;20034;-68
2022/09/07 04:36:25;;;;;;;;;;;16.90;99.90;;;;;;5031380;28;20493;-68
2022/09/07 04:38:55;;;;;;;;;;;16.90;99.90;;;;;;5056509;22;20017;-70
2022/09/07 04:41:20;;;;;;;;;;;16.90;99.90;;;;;;5051039;28;19924;-70
2022/09/07 04:43:47;;;;;;;;;;;16.90;99.90;;;;;;5048723;28;20054;-70
2022/09/07 04:46:23;;;;;;;;;;;16.80;99.90;;;;;;5052509;28;19999;-70
2022/09/07 04:48:49;;;;;;;;;;;16.80;99.90;;;;;;5051912;28;19960;-71
2022/09/07 04:51:18;;;;;;;;;;;16.80;99.90;;;;;;5054639;28;20383;-70
2022/09/07 04:53:46;;;;;;;;;;;16.80;99.90;;;;;;5052111;28;19932;-70
2022/09/07 04:56:11;;;;;;;;;;;16.80;99.90;;;;;;5053063;28;19928;-71
2022/09/07 04:58:37;;;;;;;;;;;16.80;99.90;;;;;;5054916;28;19920;-71
2022/09/07 05:01:04;;;;;;;;;;;16.80;99.90;;;;;;5048644;28;20003;-71
2022/09/07 05:03:30;;;;;;;;;;;16.80;99.90;;;;;;5072086;28;20011;-70
2022/09/07 05:05:55;;;;;;;;;;;16.70;99.90;;;;;;5071325;28;20015;-70
2022/09/07 05:08:20;;;;;;;;;;;16.80;99.90;;;;;;5053881;28;20416;-70
2022/09/07 05:10:50;;;;;;;;;;;16.80;99.90;;;;;;5038252;28;19971;-70
2022/09/07 05:13:16;;;;;;;;;;;16.90;99.90;;;;;;5055020;28;20013;-70
2022/09/07 05:15:41;;;;;;;;;;;16.80;99.90;;;;;;5074370;28;20006;-71
2022/09/07 05:18:07;;;;;;;;;;;16.80;99.90;;;;;;5055899;28;19931;-70
2022/09/07 05:20:32;;;;;;;;;;;16.80;99.90;;;;;;5031658;28;20415;-71
2022/09/07 05:22:58;;;;;;;;;;;16.80;99.90;;;;;;5043421;28;20034;-70
2022/09/07 05:25:27;;;;;;;;;;;16.80;99.90;;;;;;5055393;28;20277;-71
2022/09/07 05:27:53;;;;;;;;;;;16.80;99.90;;;;;;5029084;28;19927;-70
2022/09/07 05:30:19;;;;;;;;;;;16.80;99.90;;;;;;5068479;28;19925;-70
2022/09/07 05:32:45;;;;;;;;;;;16.80;99.90;;;;;;5069901;28;19925;-70
2022/09/07 05:35:11;;;;;;;;;;;16.80;99.90;;;;;;5048414;28;19920;-70
2022/09/07 05:37:36;;;;;;;;;;;16.70;99.90;;;;;;5058995;28;20343;-70
2022/09/07 05:40:02;;;;;;;;;;;16.70;99.90;;;;;;5036820;28;19955;-70
2022/09/07 05:42:29;;;;;;;;;;;16.70;99.90;;;;;;5036383;28;19928;-70
2022/09/07 05:44:54;;;;;;;;;;;16.70;99.90;;;;;;5048890;28;19928;-70
2022/09/07 05:47:20;;;;;;;;;;;16.70;99.90;;;;;;5052232;28;19920;-70
2022/09/07 05:49:45;;;;;;;;;;;16.60;99.90;;;;;;5036784;28;19925;-70
2022/09/07 05:52:11;;;;;;;;;;;16.60;99.90;;;;;;5068466;28;19936;-70
2022/09/07 05:54:36;;;;;;;;;;;16.60;99.90;;;;;;5054118;28;19925;-70
2022/09/07 05:57:02;;;;;;;;;;;16.60;99.90;;;;;;5044625;28;19964;-71
2022/09/07 05:59:27;;;;;;;;;;;16.60;99.90;;;;;;5034533;28;19932;-70
2022/09/07 06:01:53;;;;;;;;;;;16.60;99.90;;;;;;5019876;28;19928;-71
2022/09/07 06:04:18;;;;;;;;;;;16.60;99.90;;;;;;5037861;28;20305;-70
2022/09/07 06:06:44;;;;;;;;;;;16.60;99.90;;;;;;5036775;28;19928;-70
2022/09/07 06:09:11;;;;;;;;;;;16.60;99.90;;;;;;5045331;28;20567;-71
2022/09/07 06:11:37;;;;;;;;;;;16.70;99.90;;;;;;5040749;28;19920;-71
2022/09/07 06:14:02;;;;;;;;;;;16.80;99.90;;;;;;5037188;28;19920;-70
2022/09/07 06:16:28;;;;;;;;;;;16.90;99.90;;;;;;5068267;28;20379;-70
2022/09/07 06:18:53;;;;;;;;;;;17.00;99.90;;;;;;5064677;28;20405;-70
2022/09/07 06:21:20;;;;;;;;;;;17.10;99.90;;;;;;5051307;28;20392;-70
2022/09/07 06:23:46;;;;;;;;;;;17.10;99.90;;;;;;5048928;28;20003;-70
2022/09/07 06:26:13;;;;;;;;;;;17.10;99.90;;;;;;5043178;28;19931;-71
2022/09/07 06:28:39;;;;;;;;;;;17.10;99.90;;;;;;5048439;28;20316;-70
2022/09/07 06:31:06;;;;;;;;;;;17.20;99.90;;;;;;5042243;28;19974;-71
2022/09/07 06:33:33;;;;;;;;;;;17.30;99.90;;;;;;5034982;28;19921;-71
2022/09/07 06:35:59;;;;;;;;;;;17.40;99.90;;;;;;5049398;28;19920;-71
2022/09/07 06:38:28;;;;;;;;;;;17.50;99.90;;;;;;5070928;28;19929;-70
2022/09/07 06:40:53;;;;;;;;;;;17.60;99.90;;;;;;5053202;28;19924;-70
2022/09/07 06:43:19;;;;;;;;;;;17.60;99.90;;;;;;5054363;28;19927;-71
2022/09/07 06:45:50;;;;;;;;;;;17.60;99.90;;;;;;5033716;28;20354;-71
2022/09/07 06:48:15;;;;;;;;;;;17.70;99.90;;;;;;5051129;28;19920;-71
2022/09/07 06:50:41;;;;;;;;;;;17.70;99.90;;;;;;5052067;28;19973;-72
2022/09/07 06:53:06;;;;;;;;;;;17.70;99.90;;;;;;5044588;28;20460;-71
2022/09/07 06:55:32;;;;;;;;;;;17.80;99.90;;;;;;5050674;28;20054;-71
2022/09/07 06:57:57;;;;;;;;;;;17.80;99.90;;;;;;5044046;28;19925;-71
2022/09/07 07:00:23;;;;;;;;;;;17.80;99.90;;;;;;5049856;28;20375;-71
2022/09/07 07:02:48;;;;;;;;;;;17.80;99.90;;;;;;5045244;28;19924;-71
2022/09/07 07:05:14;;;;;;;;;;;17.90;99.90;;;;;;5050043;28;20362;-71
2022/09/07 07:07:39;;;;;;;;;;;17.90;99.90;;;;;;5050039;28;19943;-70
2022/09/07 07:10:05;;;;;;;;;;;17.80;99.90;;;;;;5047568;28;19982;-71
2022/09/07 07:12:31;;;;;;;;;;;17.90;99.90;;;;;;5045266;28;19994;-70
2022/09/07 07:14:56;;;;;;;;;;;17.90;99.90;;;;;;5053046;28;19986;-72
2022/09/07 07:17:22;;;;;;;;;;;17.80;99.90;;;;;;5053784;28;19978;-71
2022/09/07 07:19:48;;;;;;;;;;;17.70;99.90;;;;;;5053061;28;19920;-71
2022/09/07 07:22:14;;;;;;;;;;;17.60;99.90;;;;;;5052478;28;19925;-72
2022/09/07 07:24:39;;;;;;;;;;;17.70;99.90;;;;;;5059052;28;19928;-72
2022/09/07 07:27:05;;;;;;;;;;;17.70;99.90;;;;;;5071248;28;19924;-72
2022/09/07 07:29:30;;;;;;;;;;;17.90;99.90;;;;;;5070608;28;19928;-71
2022/09/07 07:31:56;;;;;;;;;;;18.10;99.90;;;;;;5055436;28;20011;-72
2022/09/07 07:34:22;;;;;;;;;;;18.10;99.90;;;;;;5033517;28;19992;-71
2022/09/07 07:36:47;;;;;;;;;;;18.10;99.90;;;;;;5064746;28;19921;-71
2022/09/07 07:39:13;;;;;;;;;;;18.20;99.90;;;;;;5050944;28;19981;-71
2022/09/07 07:41:38;;;;;;;;;;;18.30;99.90;;;;;;5040023;28;20540;-72
2022/09/07 07:44:04;;;;;;;;;;;18.40;99.90;;;;;;5045652;28;20011;-71
2022/09/07 07:46:31;;;;;;;;;;;18.50;99.90;;;;;;5046796;28;20356;-71
2022/09/07 07:48:57;;;;;;;;;;;18.30;99.90;;;;;;5035346;28;19928;-71
2022/09/07 07:51:23;;;;;;;;;;;18.30;99.90;;;;;;5050283;28;19927;-70
2022/09/07 07:53:48;;;;;;;;;;;18.30;99.90;;;;;;5050033;28;19924;-71
2022/09/07 07:56:14;;;;;;;;;;;18.40;99.90;;;;;;5048976;28;19944;-70
2022/09/07 07:58:42;;;;;;;;;;;18.50;99.90;;;;;;5065742;28;19925;-70
2022/09/07 08:01:12;;;;;;;;;;;18.50;99.90;;;;;;5042469;28;19931;-71
2022/09/07 08:03:38;;;;;;;;;;;18.70;99.90;;;;;;5043837;28;19932;-71
2022/09/07 08:06:06;;;;;;;;;;;18.70;99.90;;;;;;5052292;28;19927;-71
2022/09/07 08:08:32;;;;;;;;;;;18.70;99.90;;;;;;5051800;28;20302;-71
2022/09/07 08:11:00;;;;;;;;;;;18.90;99.90;;;;;;5049252;28;19924;-71
2022/09/07 08:13:28;;;;;;;;;;;19.00;99.90;;;;;;5050881;28;19925;-71
2022/09/07 08:15:58;;;;;;;;;;;19.10;99.90;;;;;;5050399;28;19977;-71
2022/09/07 08:18:24;;;;;;;;;;;19.00;99.90;;;;;;5046280;28;20485;-71
2022/09/07 08:20:49;;;;;;;;;;;19.20;99.90;;;;;;5048919;28;19935;-69
2022/09/07 08:23:15;;;;;;;;;;;19.20;99.90;;;;;;5050415;28;19920;-69
2022/09/07 08:25:50;;;;;;;;;;;19.30;99.90;;;;;;5055796;28;20351;-69
2022/09/07 08:28:16;;;;;;;;;;;19.30;99.90;;;;;;5053035;28;20361;-69
2022/09/07 08:30:41;;;;;;;;;;;19.40;99.90;;;;;;5073255;28;19932;-70
2022/09/07 08:33:07;;;;;;;;;;;19.50;99.90;;;;;;5053202;28;19924;-70
2022/09/07 08:35:32;;;;;;;;;;;19.60;99.90;;;;;;5049892;28;20269;-70
2022/09/07 08:37:58;;;;;;;;;;;19.80;99.90;;;;;;5052809;28;19928;-70
2022/09/07 08:40:23;;;;;;;;;;;19.90;99.90;;;;;;5056354;28;19951;-70
2022/09/07 08:42:52;;;;;;;;;;;19.90;99.90;;;;;;5074741;28;19921;-70
2022/09/07 08:45:25;;;;;;;;;;;20.00;99.90;;;;;;5054199;28;19921;-70
2022/09/07 08:47:51;;;;;;;;;;;20.00;99.90;;;;;;5036744;28;20000;-70
2022/09/07 08:50:20;;;;;;;;;;;20.00;99.90;;;;;;5058803;28;19932;-70
2022/09/07 08:53:04;;;;;;;;;;;20.10;99.90;;;;;;5035493;28;20354;-70
2022/09/07 08:55:35;;;;;;;;;;;20.20;99.90;;;;;;5066621;28;19987;-69
2022/09/07 08:58:08;;;;;;;;;;;20.30;99.90;;;;;;5037475;28;19927;-69
2022/09/07 09:00:34;;;;;;;;;;;20.40;99.90;;;;;;5049627;28;19974;-69
2022/09/07 09:03:01;;;;;;;;;;;20.50;99.90;;;;;;5056236;28;20393;-70
2022/09/07 09:05:30;;;;;;;;;;;20.60;99.90;;;;;;5074165;28;20425;-69
2022/09/07 09:08:01;;;;;;;;;;;20.70;99.90;;;;;;5054766;28;19974;-69
2022/09/07 09:10:30;;;;;;;;;;;20.90;99.90;;;;;;5074363;28;19982;-69
2022/09/07 09:13:02;;;;;;;;;;;21.10;99.90;;;;;;5056168;28;19930;-69
2022/09/07 09:15:31;;;;;;;;;;;21.20;99.90;;;;;;5055209;28;19924;-69
2022/09/07 09:18:05;;;;;;;;;;;21.30;99.90;;;;;;5056482;28;20254;-70
2022/09/07 09:20:35;;;;;;;;;;;21.50;99.90;;;;;;5055583;28;19924;-69
2022/09/07 09:23:12;;;;;;;;;;;21.70;99.90;;;;;;5056396;28;19929;-70
2022/09/07 09:25:39;;;;;;;;;;;21.90;99.90;;;;;;5042392;28;19956;-70
2022/09/07 09:28:04;;;;;;;;;;;22.00;99.90;;;;;;5036568;28;19925;-69
2022/09/07 09:30:30;;;;;;;;;;;22.00;99.90;;;;;;5053712;28;19924;-69
2022/09/07 09:33:14;;;;;;;;;;;22.10;99.90;;;;;;5039219;28;20582;-69
2022/09/07 09:35:41;;;;;;;;;;;22.20;99.90;;;;;;5048217;28;19925;-69
2022/09/07 09:38:27;;;;;;;;;;;22.20;99.90;;;;;;5068970;28;19928;-69
2022/09/07 09:40:54;;;;;;;;;;;22.30;99.90;;;;;;5071642;28;20015;-69
2022/09/07 09:43:20;;;;;;;;;;;22.40;99.90;;;;;;5035832;28;20373;-69
2022/09/07 09:45:53;;;;;;;;;;;22.40;99.90;;;;;;5054956;28;19925;-69
2022/09/07 09:48:33;;;;;;;;;;;22.40;99.90;;;;;;5053089;28;19925;-69
2022/09/07 09:50:59;;;;;;;;;;;22.40;99.90;;;;;;5034609;28;19920;-69
2022/09/07 09:53:28;;;;;;;;;;;22.40;99.90;;;;;;5047719;28;19921;-69
2022/09/07 09:55:54;;;;;;;;;;;22.50;99.90;;;;;;5051482;28;19925;-69
2022/09/07 09:58:26;;;;;;;;;;;22.50;99.90;;;;;;5046536;28;19982;-69
2022/09/07 10:00:56;;;;;;;;;;;22.60;99.90;;;;;;5051453;28;19982;-69
2022/09/07 10:03:24;;;;;;;;;;;22.70;99.90;;;;;;5035224;28;19925;-69
2022/09/07 10:05:50;;;;;;;;;;;22.70;99.90;;;;;;5037722;28;19943;-69
2022/09/07 10:08:29;;;;;;;;;;;22.80;99.90;;;;;;5050202;28;20667;-69
2022/09/07 10:11:02;;;;;;;;;;;22.80;99.90;;;;;;5072927;28;20321;-69
2022/09/07 10:13:30;;;;;;;;;;;22.80;99.90;;;;;;5053630;28;19924;-68
2022/09/07 10:15:57;;;;;;;;;;;22.70;99.90;;;;;;5061501;28;19931;-69
2022/09/07 10:18:31;;;;;;;;;;;22.70;99.90;;;;;;5023544;28;19925;-68
2022/09/07 10:21:13;;;;;;;;;;;22.70;99.90;;;;;;5074712;28;20453;-69
2022/09/07 10:23:39;;;;;;;;;;;22.80;99.90;;;;;;5074904;28;19985;-68
2022/09/07 10:26:23;;;;;;;;;;;22.90;99.90;;;;;;5082768;28;19928;-68
2022/09/07 10:29:04;;;;;;;;;;;22.90;99.90;;;;;;5061543;28;19960;-69
2022/09/07 10:31:30;;;;;;;;;;;22.90;99.90;;;;;;5067276;28;19928;-69
2022/09/07 10:33:56;;;;;;;;;;;22.90;99.90;;;;;;5057306;28;19926;-68
2022/09/07 10:36:25;;;;;;;;;;;22.70;99.90;;;;;;5056188;28;19935;-68
2022/09/07 10:39:03;;;;;;;;;;;22.60;99.90;;;;;;5061762;28;19931;-68
2022/09/07 10:41:39;;;;;;;;;;;22.50;99.90;;;;;;5043960;28;19971;-69
2022/09/07 10:44:09;;;;;;;;;;;22.50;99.90;;;;;;5032740;28;19920;-68
2022/09/07 10:46:44;;;;;;;;;;;22.80;99.90;;;;;;5066538;28;19928;-69
2022/09/07 10:49:21;;;;;;;;;;;22.90;99.90;;;;;;5069391;28;19920;-68
2022/09/07 10:52:07;;;;;;;;;;;23.10;99.90;;;;;;5052103;28;20003;-69
2022/09/07 10:54:36;;;;;;;;;;;23.30;99.90;;;;;;5070374;28;20711;-70
2022/09/07 10:57:01;;;;;;;;;;;23.40;99.20;;;;;;5049648;28;19930;-68
2022/09/07 10:59:34;;;;;;;;;;;23.60;99.90;;;;;;5072170;28;19920;-69
2022/09/07 11:02:07;;;;;;;;;;;23.80;99.90;;;;;;5053593;28;19990;-69
2022/09/07 11:04:33;;;;;;;;;;;24.00;99.90;;;;;;5054650;28;19927;-69
2022/09/07 11:07:07;;;;;;;;;;;24.10;99.90;;;;;;5050916;28;20388;-69
2022/09/07 11:09:52;;;;;;;;;;;24.00;99.90;;;;;;5051731;28;19982;-69
2022/09/07 11:12:20;;;;;;;;;;;24.20;99.90;;;;;;5069894;28;19920;-69
2022/09/07 11:14:46;;;;;;;;;;;24.50;97.80;;;;;;5045842;28;19920;-68
2022/09/07 11:17:16;;;;;;;;;;;24.60;99.00;;;;;;5068687;28;19931;-69
2022/09/07 11:19:54;;;;;;;;;;;24.60;99.90;;;;;;5071189;28;19928;-68
2022/09/07 11:22:26;;;;;;;;;;;24.40;98.60;;;;;;5046687;28;19925;-68
2022/09/07 11:25:03;;;;;;;;;;;24.60;97.60;;;;;;5057019;28;19932;-68
2022/09/07 11:27:31;;;;;;;;;;;24.50;98.40;;;;;;5042282;28;19954;-69
2022/09/07 11:30:05;;;;;;;;;;;24.40;99.30;;;;;;5047555;28;19973;-69
2022/09/07 11:32:32;;;;;;;;;;;24.50;97.20;;;;;;5050249;28;19921;-69
2022/09/07 11:35:02;;;;;;;;;;;24.40;97.10;;;;;;5039217;28;19924;-69
2022/09/07 11:37:46;;;;;;;;;;;24.40;96.70;;;;;;5071074;28;19920;-69
2022/09/07 11:40:26;;;;;;;;;;;24.30;96.00;;;;;;5068952;28;20597;-69
2022/09/07 11:42:58;;;;;;;;;;;24.20;97.80;;;;;;5070305;28;19924;-69
2022/09/07 11:45:44;;;;;;;;;;;24.30;97.30;;;;;;5086763;28;20003;-69
2022/09/07 11:48:26;;;;;;;;;;;24.40;98.20;;;;;;5051297;28;20452;-69
2022/09/07 11:50:57;;;;;;;;;;;24.50;97.60;;;;;;5033496;28;19924;-68
2022/09/07 11:53:25;;;;;;;;;;;24.50;98.10;;;;;;5050645;28;19920;-69
2022/09/07 11:56:14;;;;;;;;;;;24.50;97.90;;;;;;5071859;28;19920;-69
2022/09/07 11:58:58;;;;;;;;;;;24.60;96.80;;;;;;5047626;28;19920;-69
2022/09/07 12:01:32;;;;;;;;;;;24.50;96.80;;;;;;5041251;28;20336;-69
2022/09/07 12:04:11;;;;;;;;;;;24.50;97.50;;;;;;5074207;28;19920;-69
2022/09/07 12:06:46;;;;;;;;;;;24.40;96.90;;;;;;5075690;28;19924;-69
2022/09/07 12:09:30;;;;;;;;;;;24.40;97.80;;;;;;5040451;28;20365;-69
2022/09/07 12:12:05;;;;;;;;;;;24.60;98.50;;;;;;5075680;28;19920;-69
2022/09/07 12:14:37;;;;;;;;;;;24.90;96.70;;;;;;5075268;28;20425;-69
2022/09/07 12:17:13;;;;;;;;;;;25.10;97.50;;;;;;5057407;28;19956;-69
2022/09/07 12:19:39;;;;;;;;;;;25.30;96.40;;;;;;5055733;28;20009;-69
2022/09/07 12:22:17;;;;;;;;;;;25.20;96.00;;;;;;5075232;28;19967;-69
2022/09/07 12:24:43;;;;;;;;;;;25.10;95.00;;;;;;5075065;28;19925;-69
2022/09/07 12:27:18;;;;;;;;;;;25.00;96.50;;;;;;5056899;28;19927;-69
2022/09/07 12:29:43;;;;;;;;;;;25.10;96.50;;;;;;5074961;28;20464;-69
2022/09/07 12:32:09;;;;;;;;;;;25.10;95.60;;;;;;5056392;28;20006;-68
2022/09/07 12:34:34;;;;;;;;;;;25.20;94.60;;;;;;5072113;28;19931;-68
2022/09/07 12:37:22;;;;;;;;;;;25.30;95.90;;;;;;5057398;28;19924;-68
2022/09/07 12:39:48;;;;;;;;;;;25.30;95.40;;;;;;5074192;28;20417;-69
2022/09/07 12:42:20;;;;;;;;;;;25.20;94.30;;;;;;5072802;28;19921;-69
2022/09/07 12:44:46;;;;;;;;;;;25.20;94.80;;;;;;5074343;28;20029;-69
2022/09/07 12:47:11;;;;;;;;;;;25.30;95.50;;;;;;5057024;28;20486;-69
2022/09/07 12:49:46;;;;;;;;;;;25.30;95.10;;;;;;5069735;28;20098;-67
2022/09/07 12:52:30;;;;;;;;;;;25.30;94.00;;;;;;5054709;28;19924;-67
2022/09/07 12:55:16;;;;;;;;;;;25.40;93.70;;;;;;5036589;28;20013;-67
2022/09/07 12:57:47;;;;;;;;;;;25.20;95.10;;;;;;5054190;28;20341;-68
2022/09/07 13:00:19;;;;;;;;;;;25.20;94.50;;;;;;5043755;28;19925;-67
2022/09/07 13:03:03;;;;;;;;;;;25.30;93.60;;;;;;5040073;28;19920;-67
2022/09/07 13:05:32;;;;;;;;;;;25.20;94.50;;;;;;5050364;28;20405;-67
2022/09/07 13:08:12;;;;;;;;;;;25.10;95.30;;;;;;5054544;28;19924;-67
2022/09/07 13:10:39;;;;;;;;;;;25.10;95.30;;;;;;5024175;28;19940;-68
2022/09/07 13:13:14;;;;;;;;;;;24.90;95.70;;;;;;5056252;28;19920;-68
2022/09/07 13:15:42;;;;;;;;;;;25.00;94.70;;;;;;5074305;28;20027;-67
2022/09/07 13:18:11;;;;;;;;;;;25.10;95.00;;;;;;5055961;28;19924;-67
2022/09/07 13:20:37;;;;;;;;;;;25.20;94.50;;;;;;5073903;28;19928;-68
2022/09/07 13:23:22;;;;;;;;;;;25.40;94.80;;;;;;5056219;28;20011;-68
2022/09/07 13:25:49;;;;;;;;;;;25.60;93.80;;;;;;5074020;28;19924;-65
2022/09/07 13:28:24;;;;;;;;;;;25.80;93.10;;;;;;5049386;28;19928;-67
2022/09/07 13:30:49;;;;;;;;;;;25.80;93.20;;;;;;5035854;28;19928;-67
2022/09/07 13:33:24;;;;;;;;;;;25.90;92.80;;;;;;5035826;28;19977;-67
2022/09/07 13:35:51;;;;;;;;;;;25.90;92.70;;;;;;5068871;28;20011;-68
2022/09/07 13:38:18;;;;;;;;;;;25.80;92.60;;;;;;5055838;28;19932;-67
2022/09/07 13:40:47;;;;;;;;;;;25.90;92.80;;;;;;5056380;28;19981;-67
2022/09/07 13:43:15;;;;;;;;;;;26.00;93.20;;;;;;5051581;28;19960;-67
2022/09/07 13:45:57;;;;;;;;;;;26.10;92.70;;;;;;5055150;28;19924;-68
2022/09/07 13:48:24;;;;;;;;;;;;;;;;;;5073798;28;19924;-68
2022/09/07 13:50:55;;;;;;;;;;;26.20;92.00;;;;;;5055100;28;19924;-68
2022/09/07 13:53:27;;;;;;;;;;;26.10;92.00;;;;;;5034982;28;19929;-67
2022/09/07 13:56:01;;;;;;;;;;;26.10;92.50;;;;;;5053351;28;19925;-68
2022/09/07 13:58:34;;;;;;;;;;;26.10;92.50;;;;;;5058025;28;19925;-67
2022/09/07 14:01:01;;;;;;;;;;;26.10;92.20;;;;;;5051621;28;19924;-68
2022/09/07 14:03:29;;;;;;;;;;;26.30;92.00;;;;;;5062562;28;19925;-68
2022/09/07 14:06:15;;;;;;;;;;;26.30;92.40;;;;;;5035306;28;20412;-68
2022/09/07 14:08:45;;;;;;;;;;;26.30;92.30;;;;;;5035945;28;19959;-67
2022/09/07 14:11:33;;;;;;;;;;;26.10;92.10;;;;;;5054883;28;19921;-67
2022/09/07 14:14:08;;;;;;;;;;;26.10;92.20;;;;;;5054374;28;19924;-67
2022/09/07 14:16:34;;;;;;;;;;;26.20;92.30;;;;;;5054881;28;19928;-68
2022/09/07 14:19:00;;;;;;;;;;;26.30;91.50;;;;;;5069465;28;19959;-68
2022/09/07 14:21:25;;;;;;;;;;;26.30;91.00;;;;;;5053425;28;19960;-67
2022/09/07 14:23:51;;;;;;;;;;;26.20;91.20;;;;;;5073313;28;20369;-67
2022/09/07 14:26:18;;;;;;;;;;;26.40;91.50;;;;;;5072355;28;19921;-67
2022/09/07 14:28:44;;;;;;;;;;;26.50;91.30;;;;;;5058624;28;19982;-68
2022/09/07 14:31:11;;;;;;;;;;;26.40;91.00;;;;;;5052347;28;19939;-66